sensor_id;sensor_type;location;lat;lon;timestamp;P1;durP1;ratioP1;P2;durP2;ratioP2
52734;SDS011;38631;47.572;10.704;2023-11-21T00:00:32;5.75;;;2.60;;
52734;SDS011;38631;47.572;10.704;2023-11-21T00:02:57;5.78;;;2.42;;
52734;SDS011;38631;47.572;10.704;2023-11-21T00:05:22;5.15;;;2.00;;
52734;SDS011;38631;47.572;10.704;2023-11-21T00:07:48;4.00;;;2.13;;
52734;SDS011;38631;47.572;10.704;2023-11-21T00:10:13;6.63;;;2.15;;
52734;SDS011;38631;47.572;10.704;2023-11-21T00:12:39;4.03;;;2.30;;
52734;SDS011;38631;47.572;10.704;2023-11-21T00:15:07;9.35;;;2.28;;
52734;SDS011;38631;47.572;10.704;2023-11-21T00:17:38;4.20;;;2.00;;
52734;SDS011;38631;47.572;10.704;2023-11-21T00:20:05;4.22;;;1.92;;
52734;SDS011;38631;47.572;10.704;2023-11-21T00:22:34;3.97;;;1.60;;
52734;SDS011;38631;47.572;10.704;2023-11-21T00:25:00;4.22;;;2.15;;
52734;SDS011;38631;47.572;10.704;2023-11-21T00:27:26;5.10;;;1.65;;
52734;SDS011;38631;47.572;10.704;2023-11-21T00:29:51;5.93;;;1.80;;
52734;SDS011;38631;47.572;10.704;2023-11-21T00:32:17;5.57;;;1.92;;
52734;SDS011;38631;47.572;10.704;2023-11-21T00:34:42;4.35;;;1.77;;
52734;SDS011;38631;47.572;10.704;2023-11-21T00:37:08;3.45;;;1.80;;
52734;SDS011;38631;47.572;10.704;2023-11-21T00:39:33;5.88;;;2.08;;
52734;SDS011;38631;47.572;10.704;2023-11-21T00:42:00;6.68;;;1.92;;
52734;SDS011;38631;47.572;10.704;2023-11-21T00:44:25;4.35;;;1.80;;
52734;SDS011;38631;47.572;10.704;2023-11-21T00:46:51;5.53;;;1.58;;
52734;SDS011;38631;47.572;10.704;2023-11-21T00:49:16;2.65;;;1.55;;
52734;SDS011;38631;47.572;10.704;2023-11-21T00:51:41;5.70;;;1.85;;
52734;SDS011;38631;47.572;10.704;2023-11-21T00:54:07;4.60;;;2.10;;
52734;SDS011;38631;47.572;10.704;2023-11-21T00:56:32;6.45;;;2.28;;
52734;SDS011;38631;47.572;10.704;2023-11-21T00:58:58;6.63;;;2.70;;
52734;SDS011;38631;47.572;10.704;2023-11-21T01:01:24;4.72;;;1.83;;
52734;SDS011;38631;47.572;10.704;2023-11-21T01:03:49;4.28;;;1.80;;
52734;SDS011;38631;47.572;10.704;2023-11-21T01:06:15;4.00;;;1.83;;
52734;SDS011;38631;47.572;10.704;2023-11-21T01:08:41;6.07;;;3.03;;
52734;SDS011;38631;47.572;10.704;2023-11-21T01:11:07;5.63;;;2.75;;
52734;SDS011;38631;47.572;10.704;2023-11-21T01:13:38;6.35;;;2.85;;
52734;SDS011;38631;47.572;10.704;2023-11-21T01:16:04;6.28;;;2.80;;
52734;SDS011;38631;47.572;10.704;2023-11-21T01:18:31;5.43;;;2.67;;
52734;SDS011;38631;47.572;10.704;2023-11-21T01:20:56;5.25;;;2.00;;
52734;SDS011;38631;47.572;10.704;2023-11-21T01:23:22;4.93;;;2.42;;
52734;SDS011;38631;47.572;10.704;2023-11-21T01:25:48;4.15;;;2.30;;
52734;SDS011;38631;47.572;10.704;2023-11-21T01:28:17;7.55;;;2.20;;
52734;SDS011;38631;47.572;10.704;2023-11-21T01:30:43;4.30;;;2.15;;
52734;SDS011;38631;47.572;10.704;2023-11-21T01:33:09;5.03;;;2.63;;
52734;SDS011;38631;47.572;10.704;2023-11-21T01:35:34;7.80;;;3.22;;
52734;SDS011;38631;47.572;10.704;2023-11-21T01:38:00;5.78;;;2.00;;
52734;SDS011;38631;47.572;10.704;2023-11-21T01:40:26;3.25;;;1.50;;
52734;SDS011;38631;47.572;10.704;2023-11-21T01:42:52;4.78;;;1.35;;
52734;SDS011;38631;47.572;10.704;2023-11-21T01:45:18;3.95;;;1.45;;
52734;SDS011;38631;47.572;10.704;2023-11-21T01:47:44;4.90;;;1.85;;
52734;SDS011;38631;47.572;10.704;2023-11-21T01:50:12;3.47;;;1.75;;
52734;SDS011;38631;47.572;10.704;2023-11-21T01:52:41;3.60;;;1.55;;
52734;SDS011;38631;47.572;10.704;2023-11-21T01:55:12;3.55;;;1.02;;
52734;SDS011;38631;47.572;10.704;2023-11-21T01:57:43;2.78;;;1.00;;
52734;SDS011;38631;47.572;10.704;2023-11-21T02:00:08;3.97;;;1.15;;
52734;SDS011;38631;47.572;10.704;2023-11-21T02:02:44;3.97;;;1.20;;
52734;SDS011;38631;47.572;10.704;2023-11-21T02:05:12;3.83;;;1.50;;
52734;SDS011;38631;47.572;10.704;2023-11-21T02:07:39;6.30;;;2.15;;
52734;SDS011;38631;47.572;10.704;2023-11-21T02:10:09;7.40;;;2.75;;
52734;SDS011;38631;47.572;10.704;2023-11-21T02:12:35;3.95;;;1.30;;
52734;SDS011;38631;47.572;10.704;2023-11-21T02:15:04;9.60;;;1.63;;
52734;SDS011;38631;47.572;10.704;2023-11-21T02:17:34;5.38;;;1.60;;
52734;SDS011;38631;47.572;10.704;2023-11-21T02:20:00;3.95;;;1.60;;
52734;SDS011;38631;47.572;10.704;2023-11-21T02:22:26;5.65;;;2.08;;
52734;SDS011;38631;47.572;10.704;2023-11-21T02:27:22;1.60;;;0.93;;
52734;SDS011;38631;47.572;10.704;2023-11-21T02:29:50;12.35;;;1.40;;
52734;SDS011;38631;47.572;10.704;2023-11-21T02:32:15;2.97;;;1.33;;
52734;SDS011;38631;47.572;10.704;2023-11-21T02:34:44;5.38;;;1.27;;
52734;SDS011;38631;47.572;10.704;2023-11-21T02:37:09;4.35;;;1.50;;
52734;SDS011;38631;47.572;10.704;2023-11-21T02:39:35;3.75;;;1.52;;
52734;SDS011;38631;47.572;10.704;2023-11-21T02:42:00;4.25;;;1.30;;
52734;SDS011;38631;47.572;10.704;2023-11-21T02:44:26;4.85;;;1.85;;
52734;SDS011;38631;47.572;10.704;2023-11-21T02:46:51;3.15;;;1.38;;
52734;SDS011;38631;47.572;10.704;2023-11-21T02:49:19;3.72;;;1.50;;
52734;SDS011;38631;47.572;10.704;2023-11-21T02:51:44;3.05;;;1.20;;
52734;SDS011;38631;47.572;10.704;2023-11-21T02:54:09;5.88;;;1.83;;
52734;SDS011;38631;47.572;10.704;2023-11-21T02:56:36;3.80;;;1.20;;
52734;SDS011;38631;47.572;10.704;2023-11-21T02:59:02;2.92;;;1.20;;
52734;SDS011;38631;47.572;10.704;2023-11-21T03:01:28;6.43;;;1.75;;
52734;SDS011;38631;47.572;10.704;2023-11-21T03:03:53;3.42;;;1.58;;
52734;SDS011;38631;47.572;10.704;2023-11-21T03:06:20;2.85;;;1.23;;
52734;SDS011;38631;47.572;10.704;2023-11-21T03:08:46;5.00;;;1.45;;
52734;SDS011;38631;47.572;10.704;2023-11-21T03:11:12;3.47;;;1.45;;
52734;SDS011;38631;47.572;10.704;2023-11-21T03:13:41;3.42;;;1.40;;
52734;SDS011;38631;47.572;10.704;2023-11-21T03:16:10;7.95;;;1.95;;
52734;SDS011;38631;47.572;10.704;2023-11-21T03:18:36;2.95;;;1.38;;
52734;SDS011;38631;47.572;10.704;2023-11-21T03:21:04;1.75;;;0.80;;
52734;SDS011;38631;47.572;10.704;2023-11-21T03:23:31;3.95;;;1.42;;
52734;SDS011;38631;47.572;10.704;2023-11-21T03:25:56;4.20;;;1.30;;
52734;SDS011;38631;47.572;10.704;2023-11-21T03:28:22;3.88;;;0.93;;
52734;SDS011;38631;47.572;10.704;2023-11-21T03:30:48;2.70;;;0.95;;
52734;SDS011;38631;47.572;10.704;2023-11-21T03:33:14;2.65;;;1.25;;
52734;SDS011;38631;47.572;10.704;2023-11-21T03:35:39;2.42;;;1.10;;
52734;SDS011;38631;47.572;10.704;2023-11-21T03:38:06;2.40;;;1.10;;
52734;SDS011;38631;47.572;10.704;2023-11-21T03:40:32;2.47;;;1.00;;
52734;SDS011;38631;47.572;10.704;2023-11-21T03:42:58;2.53;;;1.27;;
52734;SDS011;38631;47.572;10.704;2023-11-21T03:45:23;4.93;;;1.00;;
52734;SDS011;38631;47.572;10.704;2023-11-21T03:47:49;4.88;;;1.02;;
52734;SDS011;38631;47.572;10.704;2023-11-21T03:50:14;3.67;;;1.52;;
52734;SDS011;38631;47.572;10.704;2023-11-21T03:52:40;2.80;;;1.15;;
52734;SDS011;38631;47.572;10.704;2023-11-21T03:55:05;1.83;;;0.95;;
52734;SDS011;38631;47.572;10.704;2023-11-21T03:57:31;3.53;;;1.30;;
52734;SDS011;38631;47.572;10.704;2023-11-21T03:59:56;3.63;;;1.45;;
52734;SDS011;38631;47.572;10.704;2023-11-21T04:02:22;2.22;;;1.02;;
52734;SDS011;38631;47.572;10.704;2023-11-21T04:04:47;2.65;;;1.23;;
52734;SDS011;38631;47.572;10.704;2023-11-21T04:07:13;6.82;;;1.65;;
52734;SDS011;38631;47.572;10.704;2023-11-21T04:09:38;4.82;;;2.28;;
52734;SDS011;38631;47.572;10.704;2023-11-21T04:12:04;3.83;;;2.05;;
52734;SDS011;38631;47.572;10.704;2023-11-21T04:14:30;2.55;;;1.20;;
52734;SDS011;38631;47.572;10.704;2023-11-21T04:16:55;7.38;;;1.58;;
52734;SDS011;38631;47.572;10.704;2023-11-21T04:19:21;3.03;;;1.35;;
52734;SDS011;38631;47.572;10.704;2023-11-21T04:21:46;2.60;;;1.27;;
52734;SDS011;38631;47.572;10.704;2023-11-21T04:24:12;2.75;;;1.42;;
52734;SDS011;38631;47.572;10.704;2023-11-21T04:26:37;2.67;;;1.42;;
52734;SDS011;38631;47.572;10.704;2023-11-21T04:29:03;3.22;;;1.35;;
52734;SDS011;38631;47.572;10.704;2023-11-21T04:31:29;2.72;;;1.42;;
52734;SDS011;38631;47.572;10.704;2023-11-21T04:33:55;3.72;;;2.10;;
52734;SDS011;38631;47.572;10.704;2023-11-21T04:36:21;3.38;;;1.40;;
52734;SDS011;38631;47.572;10.704;2023-11-21T04:38:47;2.47;;;1.30;;
52734;SDS011;38631;47.572;10.704;2023-11-21T04:41:12;3.78;;;1.00;;
52734;SDS011;38631;47.572;10.704;2023-11-21T04:43:38;8.98;;;1.50;;
52734;SDS011;38631;47.572;10.704;2023-11-21T04:46:03;1.80;;;1.00;;
52734;SDS011;38631;47.572;10.704;2023-11-21T04:48:29;3.13;;;1.17;;
52734;SDS011;38631;47.572;10.704;2023-11-21T04:50:55;4.55;;;1.55;;
52734;SDS011;38631;47.572;10.704;2023-11-21T04:53:21;2.15;;;1.25;;
52734;SDS011;38631;47.572;10.704;2023-11-21T04:55:47;3.15;;;0.90;;
52734;SDS011;38631;47.572;10.704;2023-11-21T04:58:13;3.33;;;1.10;;
52734;SDS011;38631;47.572;10.704;2023-11-21T05:00:39;3.95;;;1.25;;
52734;SDS011;38631;47.572;10.704;2023-11-21T05:03:06;5.45;;;1.10;;
52734;SDS011;38631;47.572;10.704;2023-11-21T05:05:32;5.45;;;1.02;;
52734;SDS011;38631;47.572;10.704;2023-11-21T05:07:59;2.55;;;0.95;;
52734;SDS011;38631;47.572;10.704;2023-11-21T05:10:25;2.70;;;0.70;;
52734;SDS011;38631;47.572;10.704;2023-11-21T05:12:50;3.28;;;0.77;;
52734;SDS011;38631;47.572;10.704;2023-11-21T05:15:16;4.10;;;1.17;;
52734;SDS011;38631;47.572;10.704;2023-11-21T05:17:43;2.67;;;1.40;;
52734;SDS011;38631;47.572;10.704;2023-11-21T05:20:10;2.30;;;1.00;;
52734;SDS011;38631;47.572;10.704;2023-11-21T05:22:37;2.22;;;1.10;;
52734;SDS011;38631;47.572;10.704;2023-11-21T05:25:03;1.92;;;0.77;;
52734;SDS011;38631;47.572;10.704;2023-11-21T05:27:29;2.28;;;1.17;;
52734;SDS011;38631;47.572;10.704;2023-11-21T05:29:56;4.47;;;1.30;;
52734;SDS011;38631;47.572;10.704;2023-11-21T05:32:22;2.80;;;1.20;;
52734;SDS011;38631;47.572;10.704;2023-11-21T05:34:49;2.60;;;1.20;;
52734;SDS011;38631;47.572;10.704;2023-11-21T05:37:14;2.92;;;1.17;;
52734;SDS011;38631;47.572;10.704;2023-11-21T05:39:40;2.85;;;1.15;;
52734;SDS011;38631;47.572;10.704;2023-11-21T05:42:06;3.83;;;1.42;;
52734;SDS011;38631;47.572;10.704;2023-11-21T05:44:34;2.08;;;1.00;;
52734;SDS011;38631;47.572;10.704;2023-11-21T05:47:00;2.22;;;1.05;;
52734;SDS011;38631;47.572;10.704;2023-11-21T05:49:25;3.30;;;1.33;;
52734;SDS011;38631;47.572;10.704;2023-11-21T05:51:52;5.15;;;1.55;;
52734;SDS011;38631;47.572;10.704;2023-11-21T05:54:19;4.22;;;1.83;;
52734;SDS011;38631;47.572;10.704;2023-11-21T05:56:45;4.28;;;1.27;;
52734;SDS011;38631;47.572;10.704;2023-11-21T05:59:13;3.15;;;1.30;;
52734;SDS011;38631;47.572;10.704;2023-11-21T06:01:42;2.38;;;1.15;;
52734;SDS011;38631;47.572;10.704;2023-11-21T06:04:10;3.17;;;1.10;;
52734;SDS011;38631;47.572;10.704;2023-11-21T06:06:37;7.10;;;3.47;;
52734;SDS011;38631;47.572;10.704;2023-11-21T06:09:05;6.75;;;2.38;;
52734;SDS011;38631;47.572;10.704;2023-11-21T06:11:34;5.78;;;3.28;;
52734;SDS011;38631;47.572;10.704;2023-11-21T06:14:01;8.40;;;4.60;;
52734;SDS011;38631;47.572;10.704;2023-11-21T06:16:28;5.47;;;2.92;;
52734;SDS011;38631;47.572;10.704;2023-11-21T06:18:55;6.05;;;2.15;;
52734;SDS011;38631;47.572;10.704;2023-11-21T06:21:21;3.80;;;1.67;;
52734;SDS011;38631;47.572;10.704;2023-11-21T06:23:47;2.88;;;1.38;;
52734;SDS011;38631;47.572;10.704;2023-11-21T06:26:18;1.85;;;0.68;;
52734;SDS011;38631;47.572;10.704;2023-11-21T06:28:45;1.83;;;0.95;;
52734;SDS011;38631;47.572;10.704;2023-11-21T06:31:12;2.47;;;0.93;;
52734;SDS011;38631;47.572;10.704;2023-11-21T06:33:39;1.17;;;0.60;;
52734;SDS011;38631;47.572;10.704;2023-11-21T06:36:06;3.78;;;0.70;;
52734;SDS011;38631;47.572;10.704;2023-11-21T06:38:32;2.35;;;0.63;;
52734;SDS011;38631;47.572;10.704;2023-11-21T06:40:58;1.02;;;0.52;;
52734;SDS011;38631;47.572;10.704;2023-11-21T06:43:27;1.20;;;0.82;;
52734;SDS011;38631;47.572;10.704;2023-11-21T06:45:57;6.15;;;1.80;;
52734;SDS011;38631;47.572;10.704;2023-11-21T06:48:23;2.97;;;1.70;;
52734;SDS011;38631;47.572;10.704;2023-11-21T06:50:48;3.88;;;1.60;;
52734;SDS011;38631;47.572;10.704;2023-11-21T06:53:14;3.35;;;2.25;;
52734;SDS011;38631;47.572;10.704;2023-11-21T06:55:40;3.75;;;2.28;;
52734;SDS011;38631;47.572;10.704;2023-11-21T06:58:05;4.28;;;2.78;;
52734;SDS011;38631;47.572;10.704;2023-11-21T07:00:31;6.03;;;2.70;;
52734;SDS011;38631;47.572;10.704;2023-11-21T07:02:57;4.38;;;2.63;;
52734;SDS011;38631;47.572;10.704;2023-11-21T07:05:23;5.10;;;1.90;;
52734;SDS011;38631;47.572;10.704;2023-11-21T07:07:50;2.00;;;1.45;;
52734;SDS011;38631;47.572;10.704;2023-11-21T07:10:19;2.03;;;1.00;;
52734;SDS011;38631;47.572;10.704;2023-11-21T07:12:44;3.40;;;1.35;;
52734;SDS011;38631;47.572;10.704;2023-11-21T07:15:13;2.65;;;1.50;;
52734;SDS011;38631;47.572;10.704;2023-11-21T07:17:42;5.82;;;1.60;;
52734;SDS011;38631;47.572;10.704;2023-11-21T07:20:12;2.40;;;1.25;;
52734;SDS011;38631;47.572;10.704;2023-11-21T07:22:42;5.40;;;1.70;;
52734;SDS011;38631;47.572;10.704;2023-11-21T07:25:10;3.65;;;1.55;;
52734;SDS011;38631;47.572;10.704;2023-11-21T07:27:37;4.65;;;1.98;;
52734;SDS011;38631;47.572;10.704;2023-11-21T07:30:04;5.63;;;1.88;;
52734;SDS011;38631;47.572;10.704;2023-11-21T07:32:34;3.67;;;1.50;;
52734;SDS011;38631;47.572;10.704;2023-11-21T07:35:00;3.78;;;1.70;;
52734;SDS011;38631;47.572;10.704;2023-11-21T07:37:27;5.00;;;1.67;;
52734;SDS011;38631;47.572;10.704;2023-11-21T07:39:55;3.55;;;1.33;;
52734;SDS011;38631;47.572;10.704;2023-11-21T07:42:24;4.03;;;1.48;;
52734;SDS011;38631;47.572;10.704;2023-11-21T07:44:51;2.70;;;1.30;;
52734;SDS011;38631;47.572;10.704;2023-11-21T07:47:17;2.45;;;1.08;;
52734;SDS011;38631;47.572;10.704;2023-11-21T07:49:44;4.78;;;1.23;;
52734;SDS011;38631;47.572;10.704;2023-11-21T07:52:11;3.53;;;1.20;;
52734;SDS011;38631;47.572;10.704;2023-11-21T07:54:37;3.90;;;1.90;;
52734;SDS011;38631;47.572;10.704;2023-11-21T07:57:06;5.53;;;2.00;;
52734;SDS011;38631;47.572;10.704;2023-11-21T07:59:32;4.25;;;0.90;;
52734;SDS011;38631;47.572;10.704;2023-11-21T08:01:57;1.92;;;1.00;;
52734;SDS011;38631;47.572;10.704;2023-11-21T08:04:27;3.42;;;1.27;;
52734;SDS011;38631;47.572;10.704;2023-11-21T08:06:52;1.33;;;0.80;;
52734;SDS011;38631;47.572;10.704;2023-11-21T08:09:20;2.63;;;0.85;;
52734;SDS011;38631;47.572;10.704;2023-11-21T08:11:49;2.13;;;1.00;;
52734;SDS011;38631;47.572;10.704;2023-11-21T08:14:18;3.40;;;1.00;;
52734;SDS011;38631;47.572;10.704;2023-11-21T08:16:45;3.83;;;0.93;;
52734;SDS011;38631;47.572;10.704;2023-11-21T08:19:11;4.68;;;1.23;;
52734;SDS011;38631;47.572;10.704;2023-11-21T08:21:39;4.00;;;1.40;;
52734;SDS011;38631;47.572;10.704;2023-11-21T08:24:06;3.75;;;1.50;;
52734;SDS011;38631;47.572;10.704;2023-11-21T08:26:37;4.93;;;1.50;;
52734;SDS011;38631;47.572;10.704;2023-11-21T08:29:03;3.55;;;1.63;;
52734;SDS011;38631;47.572;10.704;2023-11-21T08:31:33;2.53;;;1.42;;
52734;SDS011;38631;47.572;10.704;2023-11-21T08:34:00;4.72;;;1.50;;
52734;SDS011;38631;47.572;10.704;2023-11-21T08:36:27;3.28;;;1.20;;
52734;SDS011;38631;47.572;10.704;2023-11-21T08:38:56;2.92;;;0.80;;
52734;SDS011;38631;47.572;10.704;2023-11-21T08:41:23;3.55;;;1.08;;
52734;SDS011;38631;47.572;10.704;2023-11-21T08:43:50;3.97;;;1.35;;
52734;SDS011;38631;47.572;10.704;2023-11-21T08:46:16;2.72;;;1.15;;
52734;SDS011;38631;47.572;10.704;2023-11-21T08:48:44;3.33;;;1.27;;
52734;SDS011;38631;47.572;10.704;2023-11-21T08:51:10;4.72;;;2.28;;
52734;SDS011;38631;47.572;10.704;2023-11-21T08:53:39;3.05;;;1.77;;
52734;SDS011;38631;47.572;10.704;2023-11-21T08:56:05;3.90;;;1.20;;
52734;SDS011;38631;47.572;10.704;2023-11-21T08:58:34;2.97;;;1.23;;
52734;SDS011;38631;47.572;10.704;2023-11-21T09:01:02;4.45;;;1.33;;
52734;SDS011;38631;47.572;10.704;2023-11-21T09:03:28;3.38;;;0.90;;
52734;SDS011;38631;47.572;10.704;2023-11-21T09:05:58;1.88;;;1.00;;
52734;SDS011;38631;47.572;10.704;2023-11-21T09:08:24;1.52;;;0.70;;
52734;SDS011;38631;47.572;10.704;2023-11-21T09:13:23;3.30;;;1.10;;
52734;SDS011;38631;47.572;10.704;2023-11-21T09:18:17;5.63;;;1.40;;
52734;SDS011;38631;47.572;10.704;2023-11-21T09:20:44;3.25;;;1.40;;
52734;SDS011;38631;47.572;10.704;2023-11-21T09:23:10;3.72;;;1.20;;
52734;SDS011;38631;47.572;10.704;2023-11-21T09:25:39;5.72;;;1.45;;
52734;SDS011;38631;47.572;10.704;2023-11-21T09:28:10;4.65;;;1.33;;
52734;SDS011;38631;47.572;10.704;2023-11-21T09:30:36;3.15;;;1.17;;
52734;SDS011;38631;47.572;10.704;2023-11-21T09:33:03;4.97;;;1.55;;
52734;SDS011;38631;47.572;10.704;2023-11-21T09:35:32;3.80;;;1.60;;
52734;SDS011;38631;47.572;10.704;2023-11-21T09:37:58;3.03;;;1.33;;
52734;SDS011;38631;47.572;10.704;2023-11-21T09:40:24;4.25;;;1.83;;
52734;SDS011;38631;47.572;10.704;2023-11-21T09:42:56;4.55;;;1.75;;
52734;SDS011;38631;47.572;10.704;2023-11-21T09:45:32;5.00;;;1.45;;
52734;SDS011;38631;47.572;10.704;2023-11-21T09:48:01;1.87;;;1.30;;
52734;SDS011;38631;47.572;10.704;2023-11-21T09:50:30;3.33;;;1.10;;
52734;SDS011;38631;47.572;10.704;2023-11-21T09:55:43;1.65;;;0.80;;
52734;SDS011;38631;47.572;10.704;2023-11-21T09:58:12;2.47;;;0.88;;
52734;SDS011;38631;47.572;10.704;2023-11-21T10:00:41;3.28;;;1.17;;
52734;SDS011;38631;47.572;10.704;2023-11-21T10:03:14;1.85;;;1.00;;
52734;SDS011;38631;47.572;10.704;2023-11-21T10:05:45;3.10;;;0.85;;
52734;SDS011;38631;47.572;10.704;2023-11-21T10:08:13;2.75;;;0.77;;
52734;SDS011;38631;47.572;10.704;2023-11-21T10:10:44;5.28;;;1.00;;
52734;SDS011;38631;47.572;10.704;2023-11-21T10:13:14;4.22;;;0.88;;
52734;SDS011;38631;47.572;10.704;2023-11-21T10:15:49;2.42;;;0.63;;
52734;SDS011;38631;47.572;10.704;2023-11-21T10:18:18;2.95;;;0.60;;
52734;SDS011;38631;47.572;10.704;2023-11-21T10:20:45;1.58;;;0.60;;
52734;SDS011;38631;47.572;10.704;2023-11-21T10:23:19;2.70;;;0.50;;
52734;SDS011;38631;47.572;10.704;2023-11-21T10:25:47;2.17;;;0.60;;
52734;SDS011;38631;47.572;10.704;2023-11-21T10:28:14;1.98;;;0.70;;
52734;SDS011;38631;47.572;10.704;2023-11-21T10:30:40;2.10;;;0.98;;
52734;SDS011;38631;47.572;10.704;2023-11-21T10:33:11;1.30;;;0.70;;
52734;SDS011;38631;47.572;10.704;2023-11-21T10:35:46;1.38;;;0.80;;
52734;SDS011;38631;47.572;10.704;2023-11-21T10:38:20;2.05;;;0.80;;
52734;SDS011;38631;47.572;10.704;2023-11-21T10:41:00;2.05;;;0.88;;
52734;SDS011;38631;47.572;10.704;2023-11-21T10:43:29;2.63;;;0.55;;
52734;SDS011;38631;47.572;10.704;2023-11-21T10:46:03;7.65;;;0.80;;
52734;SDS011;38631;47.572;10.704;2023-11-21T10:48:31;1.70;;;0.70;;
52734;SDS011;38631;47.572;10.704;2023-11-21T10:50:58;1.50;;;0.50;;
52734;SDS011;38631;47.572;10.704;2023-11-21T10:53:28;3.65;;;1.08;;
52734;SDS011;38631;47.572;10.704;2023-11-21T10:56:05;1.80;;;1.10;;
52734;SDS011;38631;47.572;10.704;2023-11-21T11:01:02;0.70;;;0.40;;
52734;SDS011;38631;47.572;10.704;2023-11-21T11:03:33;2.20;;;0.50;;
52734;SDS011;38631;47.572;10.704;2023-11-21T11:06:02;0.70;;;0.70;;
52734;SDS011;38631;47.572;10.704;2023-11-21T11:08:36;1.25;;;0.60;;
52734;SDS011;38631;47.572;10.704;2023-11-21T11:11:04;1.52;;;0.80;;
52734;SDS011;38631;47.572;10.704;2023-11-21T11:13:34;1.67;;;0.50;;
52734;SDS011;38631;47.572;10.704;2023-11-21T11:16:01;1.35;;;0.50;;
52734;SDS011;38631;47.572;10.704;2023-11-21T11:18:29;3.72;;;0.65;;
52734;SDS011;38631;47.572;10.704;2023-11-21T11:24:05;1.00;;;0.45;;
52734;SDS011;38631;47.572;10.704;2023-11-21T11:26:41;0.90;;;0.30;;
52734;SDS011;38631;47.572;10.704;2023-11-21T11:32:20;1.40;;;0.88;;
52734;SDS011;38631;47.572;10.704;2023-11-21T11:34:54;1.75;;;1.00;;
52734;SDS011;38631;47.572;10.704;2023-11-21T11:37:26;1.17;;;0.55;;
52734;SDS011;38631;47.572;10.704;2023-11-21T11:39:52;1.05;;;0.43;;
52734;SDS011;38631;47.572;10.704;2023-11-21T11:42:19;1.42;;;0.50;;
52734;SDS011;38631;47.572;10.704;2023-11-21T11:44:49;1.03;;;0.60;;
52734;SDS011;38631;47.572;10.704;2023-11-21T11:49:59;1.40;;;0.70;;
52734;SDS011;38631;47.572;10.704;2023-11-21T11:55:01;1.55;;;0.50;;
52734;SDS011;38631;47.572;10.704;2023-11-21T11:57:32;1.45;;;0.90;;
52734;SDS011;38631;47.572;10.704;2023-11-21T12:00:22;1.02;;;0.50;;
52734;SDS011;38631;47.572;10.704;2023-11-21T12:03:00;0.90;;;0.50;;
52734;SDS011;38631;47.572;10.704;2023-11-21T12:05:30;1.02;;;0.50;;
52734;SDS011;38631;47.572;10.704;2023-11-21T12:08:07;2.05;;;0.65;;
52734;SDS011;38631;47.572;10.704;2023-11-21T12:10:35;1.67;;;1.23;;
52734;SDS011;38631;47.572;10.704;2023-11-21T12:13:10;3.08;;;2.20;;
52734;SDS011;38631;47.572;10.704;2023-11-21T12:15:38;2.67;;;1.45;;
52734;SDS011;38631;47.572;10.704;2023-11-21T12:18:06;0.90;;;0.60;;
52734;SDS011;38631;47.572;10.704;2023-11-21T12:20:32;2.15;;;0.75;;
52734;SDS011;38631;47.572;10.704;2023-11-21T12:23:03;2.20;;;1.00;;
52734;SDS011;38631;47.572;10.704;2023-11-21T12:25:33;1.45;;;0.80;;
52734;SDS011;38631;47.572;10.704;2023-11-21T12:28:00;2.28;;;1.30;;
52734;SDS011;38631;47.572;10.704;2023-11-21T12:30:30;1.00;;;0.80;;
52734;SDS011;38631;47.572;10.704;2023-11-21T12:33:01;1.50;;;1.00;;
52734;SDS011;38631;47.572;10.704;2023-11-21T12:35:31;2.17;;;0.80;;
52734;SDS011;38631;47.572;10.704;2023-11-21T12:38:00;3.10;;;2.05;;
52734;SDS011;38631;47.572;10.704;2023-11-21T12:40:29;1.00;;;0.60;;
52734;SDS011;38631;47.572;10.704;2023-11-21T12:42:56;0.98;;;0.68;;
52734;SDS011;38631;47.572;10.704;2023-11-21T12:45:27;3.35;;;1.38;;
52734;SDS011;38631;47.572;10.704;2023-11-21T12:48:00;1.00;;;0.75;;
52734;SDS011;38631;47.572;10.704;2023-11-21T12:50:29;1.88;;;0.82;;
52734;SDS011;38631;47.572;10.704;2023-11-21T12:53:08;1.52;;;1.10;;
52734;SDS011;38631;47.572;10.704;2023-11-21T12:55:38;0.93;;;0.57;;
52734;SDS011;38631;47.572;10.704;2023-11-21T12:58:08;1.45;;;0.70;;
52734;SDS011;38631;47.572;10.704;2023-11-21T13:00:36;1.80;;;1.10;;
52734;SDS011;38631;47.572;10.704;2023-11-21T13:03:04;0.77;;;0.63;;
52734;SDS011;38631;47.572;10.704;2023-11-21T13:05:32;1.50;;;0.80;;
52734;SDS011;38631;47.572;10.704;2023-11-21T13:08:01;1.70;;;0.90;;
52734;SDS011;38631;47.572;10.704;2023-11-21T13:10:29;1.85;;;0.90;;
52734;SDS011;38631;47.572;10.704;2023-11-21T13:12:57;1.33;;;0.50;;
52734;SDS011;38631;47.572;10.704;2023-11-21T13:15:24;2.45;;;0.80;;
52734;SDS011;38631;47.572;10.704;2023-11-21T13:17:50;1.63;;;0.88;;
52734;SDS011;38631;47.572;10.704;2023-11-21T13:20:16;1.15;;;0.80;;
52734;SDS011;38631;47.572;10.704;2023-11-21T13:22:46;2.30;;;0.70;;
52734;SDS011;38631;47.572;10.704;2023-11-21T13:25:13;0.70;;;0.50;;
52734;SDS011;38631;47.572;10.704;2023-11-21T13:27:40;1.50;;;0.85;;
52734;SDS011;38631;47.572;10.704;2023-11-21T13:30:08;1.70;;;0.68;;
52734;SDS011;38631;47.572;10.704;2023-11-21T13:32:33;1.00;;;0.65;;
52734;SDS011;38631;47.572;10.704;2023-11-21T13:34:59;0.77;;;0.70;;
52734;SDS011;38631;47.572;10.704;2023-11-21T13:37:25;1.23;;;0.80;;
52734;SDS011;38631;47.572;10.704;2023-11-21T13:39:53;1.35;;;0.57;;
52734;SDS011;38631;47.572;10.704;2023-11-21T13:42:20;1.08;;;0.47;;
52734;SDS011;38631;47.572;10.704;2023-11-21T13:44:55;1.58;;;0.50;;
52734;SDS011;38631;47.572;10.704;2023-11-21T13:47:22;0.70;;;0.32;;
52734;SDS011;38631;47.572;10.704;2023-11-21T13:49:50;2.05;;;0.40;;
52734;SDS011;38631;47.572;10.704;2023-11-21T13:52:16;1.30;;;0.60;;
52734;SDS011;38631;47.572;10.704;2023-11-21T13:54:42;1.00;;;0.60;;
52734;SDS011;38631;47.572;10.704;2023-11-21T13:57:08;0.80;;;0.50;;
52734;SDS011;38631;47.572;10.704;2023-11-21T13:59:34;0.80;;;0.43;;
52734;SDS011;38631;47.572;10.704;2023-11-21T14:02:01;0.88;;;0.63;;
52734;SDS011;38631;47.572;10.704;2023-11-21T14:04:42;1.77;;;0.40;;
52734;SDS011;38631;47.572;10.704;2023-11-21T14:07:21;0.98;;;0.32;;
52734;SDS011;38631;47.572;10.704;2023-11-21T14:09:57;0.85;;;0.50;;
52734;SDS011;38631;47.572;10.704;2023-11-21T14:12:23;0.68;;;0.30;;
52734;SDS011;38631;47.572;10.704;2023-11-21T14:14:49;0.98;;;0.35;;
52734;SDS011;38631;47.572;10.704;2023-11-21T14:17:15;1.02;;;0.70;;
52734;SDS011;38631;47.572;10.704;2023-11-21T14:19:40;1.17;;;0.90;;
52734;SDS011;38631;47.572;10.704;2023-11-21T14:22:08;0.43;;;0.30;;
52734;SDS011;38631;47.572;10.704;2023-11-21T14:24:35;1.38;;;0.93;;
52734;SDS011;38631;47.572;10.704;2023-11-21T14:27:01;1.08;;;0.50;;
52734;SDS011;38631;47.572;10.704;2023-11-21T14:29:28;1.33;;;1.02;;
52734;SDS011;38631;47.572;10.704;2023-11-21T14:31:54;1.52;;;0.30;;
52734;SDS011;38631;47.572;10.704;2023-11-21T14:34:23;1.33;;;0.75;;
52734;SDS011;38631;47.572;10.704;2023-11-21T14:36:49;1.08;;;0.75;;
52734;SDS011;38631;47.572;10.704;2023-11-21T14:39:15;2.08;;;0.90;;
52734;SDS011;38631;47.572;10.704;2023-11-21T14:41:53;1.15;;;1.00;;
52734;SDS011;38631;47.572;10.704;2023-11-21T14:44:21;2.75;;;1.67;;
52734;SDS011;38631;47.572;10.704;2023-11-21T14:49:16;0.40;;;0.35;;
52734;SDS011;38631;47.572;10.704;2023-11-21T14:51:46;0.60;;;0.40;;
52734;SDS011;38631;47.572;10.704;2023-11-21T14:54:28;0.68;;;0.38;;
52734;SDS011;38631;47.572;10.704;2023-11-21T14:57:10;0.50;;;0.32;;
52734;SDS011;38631;47.572;10.704;2023-11-21T14:59:42;0.63;;;0.30;;
52734;SDS011;38631;47.572;10.704;2023-11-21T15:02:09;0.65;;;0.30;;